createdAt,value
2022-09-23T00:01:59.366Z,71.70
2022-09-23T00:04:27.399Z,71.70
2022-09-23T00:06:54.434Z,71.80
2022-09-23T00:09:21.645Z,71.70
2022-09-23T00:11:48.691Z,71.90
2022-09-23T00:14:15.820Z,71.90
2022-09-23T00:16:42.986Z,72.00
2022-09-23T00:19:10.065Z,72.10
2022-09-23T00:21:37.238Z,72.20
2022-09-23T00:24:04.676Z,72.20
2022-09-23T00:26:31.780Z,72.40
2022-09-23T00:28:58.833Z,72.30
2022-09-23T00:31:27.274Z,72.50
2022-09-23T00:33:55.357Z,72.40
2022-09-23T00:36:22.545Z,72.30
2022-09-23T00:38:49.705Z,72.30
2022-09-23T00:41:17.043Z,72.30
2022-09-23T00:43:46.957Z,72.40
2022-09-23T00:46:34.381Z,72.30
2022-09-23T00:49:04.393Z,72.20
2022-09-23T00:51:39.585Z,72.20
2022-09-23T00:54:07.003Z,72.10
2022-09-23T00:56:35.396Z,72.00
2022-09-23T00:59:02.890Z,72.10
2022-09-23T01:01:30.034Z,72.00
2022-09-23T01:03:57.602Z,71.90
2022-09-23T01:06:25.161Z,71.90
2022-09-23T01:08:52.469Z,71.80
2022-09-23T01:11:19.517Z,71.80
2022-09-23T01:13:46.970Z,71.80
2022-09-23T01:16:18.366Z,71.60
2022-09-23T01:18:50.024Z,71.70
2022-09-23T01:21:22.957Z,71.70
2022-09-23T01:24:08.512Z,71.50
2022-09-23T01:26:54.358Z,71.50
2022-09-23T01:29:21.412Z,71.40
2022-09-23T01:31:59.006Z,71.50
2022-09-23T01:35:01.536Z,71.50
2022-09-23T01:37:41.014Z,71.40
2022-09-23T01:40:08.168Z,71.40
2022-09-23T01:42:56.648Z,71.50
2022-09-23T01:45:44.278Z,71.60
2022-09-23T01:48:17.528Z,71.50
2022-09-23T01:50:59.028Z,71.60
2022-09-23T01:53:29.618Z,71.60
2022-09-23T01:55:58.531Z,71.70
2022-09-23T01:58:33.879Z,71.40
2022-09-23T02:01:02.061Z,71.40
2022-09-23T02:03:32.363Z,71.40
2022-09-23T02:06:02.567Z,71.50
2022-09-23T02:08:33.414Z,71.30
2022-09-23T02:11:05.259Z,71.40
2022-09-23T02:13:45.216Z,71.40
2022-09-23T02:16:22.447Z,71.20
2022-09-23T02:18:53.224Z,71.30
2022-09-23T02:21:21.756Z,71.10
2022-09-23T02:23:50.996Z,71.20
2022-09-23T02:26:22.783Z,70.80
2022-09-23T02:28:59.971Z,70.80
2022-09-23T02:31:33.076Z,70.80
2022-09-23T02:34:05.918Z,70.70
2022-09-23T02:36:38.157Z,70.60
2022-09-23T02:39:08.648Z,70.60
2022-09-23T02:41:50.082Z,70.40
2022-09-23T02:44:18.670Z,70.40
2022-09-23T02:46:46.153Z,70.40
2022-09-23T02:49:13.606Z,70.30
2022-09-23T02:51:41.427Z,70.20
2022-09-23T02:54:10.588Z,70.10
2022-09-23T02:56:37.904Z,70.00
2022-09-23T02:59:06.194Z,69.90
2022-09-23T03:01:56.643Z,69.90
2022-09-23T03:04:42.789Z,70.00
2022-09-23T03:07:22.238Z,69.80
2022-09-23T03:10:08.276Z,69.70
2022-09-23T03:12:40.808Z,69.50
2022-09-23T03:15:23.399Z,69.50
2022-09-23T03:17:56.876Z,69.50
2022-09-23T03:20:31.345Z,69.40
2022-09-23T03:23:00.878Z,69.50
2022-09-23T03:25:31.659Z,69.40
2022-09-23T03:28:00.904Z,69.40
2022-09-23T03:30:28.669Z,69.30
2022-09-23T03:32:57.072Z,69.20
2022-09-23T03:35:24.795Z,69.30
2022-09-23T03:37:55.023Z,69.30
2022-09-23T03:40:24.983Z,69.30
2022-09-23T03:42:53.990Z,69.10
2022-09-23T03:45:23.318Z,69.20
2022-09-23T03:47:50.576Z,69.10
2022-09-23T03:50:17.999Z,69.00
2022-09-23T03:52:45.256Z,69.00
2022-09-23T03:55:12.539Z,68.90
2022-09-23T03:57:39.820Z,69.00
2022-09-23T04:00:08.086Z,69.00
2022-09-23T04:02:41.266Z,69.10
2022-09-23T04:05:09.260Z,68.90
2022-09-23T04:07:36.535Z,68.90
2022-09-23T04:10:05.053Z,68.90
2022-09-23T04:12:32.299Z,68.90
2022-09-23T04:15:00.157Z,68.90
2022-09-23T04:17:27.426Z,68.90
2022-09-23T04:19:54.608Z,69.00
2022-09-23T04:22:21.948Z,69.10
2022-09-23T04:24:49.372Z,69.20
2022-09-23T04:27:16.656Z,69.10
2022-09-23T04:29:43.819Z,69.10
2022-09-23T04:32:10.994Z,69.10
2022-09-23T04:34:38.422Z,69.10
2022-09-23T04:37:05.623Z,69.00
2022-09-23T04:39:32.822Z,69.00
2022-09-23T04:42:00.011Z,69.10
2022-09-23T04:44:28.325Z,69.10
2022-09-23T04:46:55.478Z,69.20
2022-09-23T04:49:23.559Z,69.10
2022-09-23T04:51:50.656Z,69.20
2022-09-23T04:54:17.833Z,69.20
2022-09-23T04:56:45.134Z,69.20
2022-09-23T04:59:12.259Z,69.20
2022-09-23T05:01:39.712Z,69.30
2022-09-23T05:04:08.546Z,69.20
2022-09-23T05:06:36.345Z,69.30
2022-09-23T05:09:05.084Z,69.30
2022-09-23T05:11:32.478Z,69.50
2022-09-23T05:13:59.641Z,69.50
2022-09-23T05:16:27.265Z,69.60
2022-09-23T05:18:54.581Z,69.60
2022-09-23T05:21:23.273Z,69.70
2022-09-23T05:23:53.461Z,69.90
2022-09-23T05:26:21.392Z,69.90
2022-09-23T05:28:48.559Z,69.90
2022-09-23T05:31:19.992Z,69.90
2022-09-23T05:33:51.973Z,70.00
2022-09-23T05:36:20.610Z,69.90
2022-09-23T05:38:49.829Z,70.00
2022-09-23T05:41:17.996Z,70.00
2022-09-23T05:43:45.092Z,70.00
2022-09-23T05:46:16.420Z,70.00
2022-09-23T05:48:45.796Z,70.00
2022-09-23T05:51:17.698Z,70.10
2022-09-23T05:53:45.458Z,70.10
2022-09-23T05:56:13.014Z,70.00
2022-09-23T05:58:40.510Z,70.10
2022-09-23T06:01:14.670Z,70.10
2022-09-23T06:03:45.615Z,70.00
2022-09-23T06:06:14.621Z,70.10
2022-09-23T06:08:42.135Z,70.20
2022-09-23T06:11:09.676Z,70.30
2022-09-23T06:13:40.022Z,70.90
2022-09-23T06:16:11.628Z,69.90
2022-09-23T06:18:40.162Z,69.70
2022-09-23T06:21:07.349Z,69.50
2022-09-23T06:23:37.128Z,71.60
2022-09-23T06:26:06.027Z,71.80
2022-09-23T06:28:33.978Z,70.80
2022-09-23T06:31:03.224Z,69.20
2022-09-23T06:33:36.750Z,66.60
2022-09-23T06:36:05.849Z,62.90
2022-09-23T06:38:36.230Z,59.60
2022-09-23T06:41:03.473Z,57.60
2022-09-23T06:43:30.846Z,56.30
2022-09-23T06:45:59.295Z,55.00
2022-09-23T06:48:27.172Z,54.10
2022-09-23T06:50:54.374Z,53.30
2022-09-23T06:53:24.601Z,52.80
2022-09-23T06:56:02.493Z,52.30
2022-09-23T06:58:30.287Z,51.80
2022-09-23T07:01:07.795Z,51.00
2022-09-23T07:03:35.214Z,50.80
2022-09-23T07:06:02.305Z,50.40
2022-09-23T07:08:30.701Z,50.80
2022-09-23T07:10:59.329Z,49.70
2022-09-23T07:13:26.848Z,48.70
2022-09-23T07:15:54.827Z,48.30
2022-09-23T07:18:23.866Z,47.40
2022-09-23T07:20:54.657Z,47.00
2022-09-23T07:23:21.773Z,46.30
2022-09-23T07:25:50.380Z,46.30
2022-09-23T07:28:18.069Z,46.00
2022-09-23T07:30:55.206Z,45.10
2022-09-23T07:33:32.284Z,45.30
2022-09-23T07:36:04.045Z,44.70
2022-09-23T07:38:31.339Z,45.00
2022-09-23T07:41:02.572Z,44.10
2022-09-23T07:43:31.900Z,45.30
2022-09-23T07:46:03.673Z,45.60
2022-09-23T07:48:34.406Z,45.40
2022-09-23T07:51:12.358Z,44.30
2022-09-23T07:53:39.519Z,44.10
2022-09-23T07:56:10.178Z,43.00
2022-09-23T07:58:37.322Z,42.90
2022-09-23T08:01:09.033Z,41.30
2022-09-23T08:03:36.474Z,42.70
2022-09-23T08:06:07.230Z,43.00
2022-09-23T08:08:35.479Z,42.80
2022-09-23T08:11:06.558Z,43.00
2022-09-23T08:13:33.909Z,42.20
2022-09-23T08:16:01.140Z,42.40
2022-09-23T08:18:28.554Z,42.40
2022-09-23T08:20:55.692Z,42.80
2022-09-23T08:23:23.156Z,41.90
2022-09-23T08:25:59.525Z,41.80
2022-09-23T08:28:27.295Z,42.70
2022-09-23T08:30:55.052Z,42.80
2022-09-23T08:33:23.613Z,42.20
2022-09-23T08:35:51.231Z,41.80
2022-09-23T08:38:18.870Z,41.70
2022-09-23T08:40:48.378Z,42.10
2022-09-23T08:43:22.132Z,42.70
2022-09-23T08:45:51.139Z,42.40
2022-09-23T08:48:22.870Z,41.00
2022-09-23T08:50:58.427Z,42.40
2022-09-23T08:53:29.860Z,42.80
2022-09-23T08:55:58.754Z,42.10
2022-09-23T08:58:37.338Z,40.90
2022-09-23T09:01:04.401Z,41.20
2022-09-23T09:03:36.712Z,41.50
2022-09-23T09:06:03.941Z,41.40
2022-09-23T09:08:33.799Z,40.20
2022-09-23T09:11:00.880Z,39.70
2022-09-23T09:13:32.597Z,40.40
2022-09-23T09:16:11.290Z,40.80
2022-09-23T09:18:44.344Z,40.70
2022-09-23T09:21:12.135Z,39.90
2022-09-23T09:23:39.180Z,41.10
2022-09-23T09:26:10.211Z,40.60
2022-09-23T09:28:37.274Z,40.60
2022-09-23T09:31:22.092Z,41.50
2022-09-23T09:33:58.262Z,41.70
2022-09-23T09:36:44.757Z,40.10
2022-09-23T09:39:13.057Z,40.60
2022-09-23T09:41:47.866Z,41.20
2022-09-23T09:44:31.659Z,42.00
2022-09-23T09:47:16.992Z,41.40
2022-09-23T09:49:53.603Z,42.00
2022-09-23T09:52:22.593Z,42.70
2022-09-23T09:54:50.956Z,42.60
2022-09-23T09:57:33.652Z,42.40
2022-09-23T10:00:21.506Z,42.90
2022-09-23T10:02:52.614Z,43.10
2022-09-23T10:05:25.894Z,44.90
2022-09-23T10:07:53.271Z,45.40
2022-09-23T10:10:33.283Z,47.60
2022-09-23T10:13:14.549Z,48.10
2022-09-23T10:15:45.002Z,47.80
2022-09-23T10:18:19.609Z,49.00
2022-09-23T10:20:47.845Z,49.40
2022-09-23T10:23:16.447Z,48.30
2022-09-23T10:25:43.492Z,48.30
2022-09-23T10:28:29.964Z,47.70
2022-09-23T10:31:04.481Z,49.10
2022-09-23T10:33:31.535Z,48.20
2022-09-23T10:35:58.643Z,48.50
2022-09-23T10:38:25.755Z,47.70
2022-09-23T10:41:12.687Z,48.10
2022-09-23T10:44:17.728Z,49.20
2022-09-23T10:46:50.950Z,48.30
2022-09-23T10:49:36.558Z,48.40
2022-09-23T10:52:31.866Z,48.80
2022-09-23T10:55:17.486Z,49.70
2022-09-23T10:57:44.788Z,48.80
2022-09-23T11:00:12.440Z,48.90
2022-09-23T11:02:54.745Z,49.00
2022-09-23T11:05:36.851Z,49.70
2022-09-23T11:08:22.392Z,49.90
2022-09-23T11:10:55.780Z,47.80
2022-09-23T11:13:43.933Z,47.40
2022-09-23T11:16:20.182Z,49.70
2022-09-23T11:19:02.321Z,50.40
2022-09-23T11:21:35.344Z,49.50
2022-09-23T11:24:17.853Z,50.70
2022-09-23T11:26:44.917Z,50.00
2022-09-23T11:29:25.203Z,50.50
2022-09-23T11:31:57.393Z,51.00
2022-09-23T11:34:38.677Z,50.50
2022-09-23T11:37:09.448Z,50.60
2022-09-23T11:39:45.800Z,51.50
2022-09-23T11:42:16.952Z,50.90
2022-09-23T11:44:47.061Z,50.30
2022-09-23T11:47:16.505Z,49.90
2022-09-23T11:49:51.053Z,48.20
2022-09-23T11:52:28.885Z,51.60
2022-09-23T11:55:00.340Z,50.80
2022-09-23T11:57:43.171Z,50.60
2022-09-23T12:00:18.965Z,48.90
2022-09-23T12:03:06.497Z,49.60
2022-09-23T12:05:44.284Z,47.40
2022-09-23T12:08:18.099Z,50.10
2022-09-23T12:10:45.847Z,49.50
2022-09-23T12:13:31.786Z,48.80
2022-09-23T12:16:09.911Z,48.10
2022-09-23T12:18:48.675Z,47.60
2022-09-23T12:21:48.744Z,49.60
2022-09-23T12:24:26.233Z,49.30
2022-09-23T12:26:56.247Z,49.50
2022-09-23T12:29:25.245Z,52.20
2022-09-23T12:31:52.676Z,50.20
2022-09-23T12:34:28.198Z,49.80
2022-09-23T12:37:02.163Z,51.40
2022-09-23T12:39:34.476Z,49.60
2022-09-23T12:42:15.342Z,49.30
2022-09-23T12:44:44.284Z,50.10
2022-09-23T12:47:14.402Z,51.10
2022-09-23T12:49:42.445Z,48.90
2022-09-23T12:52:13.851Z,50.00
2022-09-23T12:54:41.699Z,49.30
2022-09-23T12:57:12.989Z,47.70
2022-09-23T12:59:55.137Z,48.20
2022-09-23T13:02:30.900Z,47.30
2022-09-23T13:05:22.681Z,47.10
2022-09-23T13:07:50.362Z,49.10
2022-09-23T13:10:22.575Z,48.00
2022-09-23T13:12:49.948Z,49.20
2022-09-23T13:15:37.293Z,47.40
2022-09-23T13:18:20.286Z,46.90
2022-09-23T13:20:48.764Z,47.60
2022-09-23T13:23:19.745Z,48.70
2022-09-23T13:25:47.253Z,49.20
2022-09-23T13:28:31.937Z,49.60
2022-09-23T13:31:02.427Z,49.90
2022-09-23T13:33:32.706Z,49.20
2022-09-23T13:36:02.252Z,49.90
2022-09-23T13:38:32.017Z,47.90
2022-09-23T13:41:05.038Z,48.90
2022-09-23T13:43:41.489Z,50.30
2022-09-23T13:46:13.979Z,50.00
2022-09-23T13:48:43.423Z,49.30
2022-09-23T13:51:11.435Z,51.40
2022-09-23T13:53:38.646Z,51.10
2022-09-23T13:56:07.151Z,50.00
2022-09-23T13:58:35.033Z,48.20
2022-09-23T14:01:02.288Z,50.70
2022-09-23T14:03:36.827Z,48.90
2022-09-23T14:06:17.379Z,49.40
2022-09-23T14:08:45.827Z,50.30
2022-09-23T14:11:16.970Z,49.90
2022-09-23T14:13:46.145Z,50.30
2022-09-23T14:16:18.088Z,49.90
2022-09-23T14:18:46.655Z,49.70
2022-09-23T14:21:34.733Z,50.20
2022-09-23T14:24:11.062Z,50.90
2022-09-23T14:26:38.459Z,52.20
2022-09-23T14:29:06.678Z,50.50
2022-09-23T14:31:33.811Z,50.60
2022-09-23T14:34:00.940Z,52.00
2022-09-23T14:36:46.558Z,51.60
2022-09-23T14:39:15.688Z,51.50
2022-09-23T14:41:44.408Z,51.80
2022-09-23T14:44:22.085Z,51.20
2022-09-23T14:46:56.996Z,51.20
2022-09-23T14:49:24.383Z,52.10
2022-09-23T14:51:55.800Z,50.20
2022-09-23T14:54:48.963Z,50.10
2022-09-23T14:57:34.301Z,50.50
2022-09-23T15:00:21.883Z,50.60
2022-09-23T15:02:59.894Z,51.10
2022-09-23T15:05:42.086Z,50.80
2022-09-23T15:08:10.760Z,51.50
2022-09-23T15:10:38.141Z,51.00
2022-09-23T15:13:23.784Z,51.30
2022-09-23T15:15:55.149Z,51.60
2022-09-23T15:18:22.537Z,51.30
2022-09-23T15:20:52.165Z,51.80
2022-09-23T15:23:51.812Z,51.60
2022-09-23T15:26:19.963Z,51.60
2022-09-23T15:28:47.683Z,53.10
2022-09-23T15:31:18.861Z,53.40
2022-09-23T15:33:49.685Z,53.80
2022-09-23T15:36:21.034Z,54.30
2022-09-23T15:38:48.502Z,54.60
2022-09-23T15:41:17.237Z,54.40
2022-09-23T15:43:44.275Z,53.60
2022-09-23T15:46:14.643Z,54.10
2022-09-23T15:48:43.667Z,54.30
2022-09-23T15:51:14.107Z,55.00
2022-09-23T15:53:41.256Z,55.40
2022-09-23T15:56:08.343Z,54.80
2022-09-23T15:58:35.767Z,55.50
2022-09-23T16:01:03.577Z,55.70
2022-09-23T16:03:30.673Z,55.60
2022-09-23T16:06:00.570Z,55.10
2022-09-23T16:08:28.232Z,55.10
2022-09-23T16:10:55.597Z,54.20
2022-09-23T16:13:23.031Z,53.70
2022-09-23T16:15:50.209Z,55.00
2022-09-23T16:18:17.348Z,55.00
2022-09-23T16:20:45.468Z,54.10
2022-09-23T16:23:12.470Z,54.70
2022-09-23T16:25:39.656Z,54.60
2022-09-23T16:28:06.721Z,54.80
2022-09-23T16:30:34.074Z,55.00
2022-09-23T16:33:01.909Z,54.80
2022-09-23T16:35:30.674Z,55.40
2022-09-23T16:37:57.770Z,55.60
2022-09-23T16:40:25.351Z,55.90
2022-09-23T16:42:55.030Z,55.20
2022-09-23T16:45:23.157Z,55.00
2022-09-23T16:47:51.422Z,55.40
2022-09-23T16:50:19.566Z,55.90
2022-09-23T16:52:46.898Z,55.70
2022-09-23T16:55:14.175Z,55.50
2022-09-23T16:57:41.293Z,56.60
2022-09-23T17:00:31.533Z,56.70
2022-09-23T17:03:34.211Z,58.00
2022-09-23T17:06:07.956Z,58.40
2022-09-23T17:08:35.408Z,59.30
2022-09-23T17:11:02.984Z,59.30
2022-09-23T17:13:30.383Z,58.90
2022-09-23T17:15:57.653Z,59.80
2022-09-23T17:18:25.123Z,60.80
2022-09-23T17:21:06.410Z,61.50
2022-09-23T17:23:35.139Z,60.40
2022-09-23T17:26:02.752Z,61.70
2022-09-23T17:28:29.823Z,61.70
2022-09-23T17:30:58.079Z,61.90
2022-09-23T17:33:25.961Z,61.30
2022-09-23T17:35:53.235Z,62.20
2022-09-23T17:38:24.702Z,62.50
2022-09-23T17:40:54.903Z,63.10
2022-09-23T17:43:25.639Z,62.00
2022-09-23T17:45:54.472Z,56.20
2022-09-23T17:48:25.403Z,57.10
2022-09-23T17:50:55.930Z,56.80
2022-09-23T17:53:23.834Z,57.60
2022-09-23T17:55:54.782Z,57.10
2022-09-23T17:58:24.250Z,57.10
2022-09-23T18:00:51.370Z,57.10
2022-09-23T18:03:18.519Z,56.40
2022-09-23T18:05:45.721Z,56.40
2022-09-23T18:08:12.948Z,56.50
2022-09-23T18:10:40.041Z,56.50
2022-09-23T18:13:07.051Z,56.60
2022-09-23T18:15:37.731Z,56.20
2022-09-23T18:18:05.393Z,56.20
2022-09-23T18:20:32.800Z,56.60
2022-09-23T18:22:59.957Z,56.90
2022-09-23T18:25:39.244Z,57.90
2022-09-23T18:28:07.199Z,58.90
2022-09-23T18:30:34.246Z,59.80
2022-09-23T18:33:02.164Z,60.30
2022-09-23T18:35:29.323Z,61.10
2022-09-23T18:37:56.435Z,62.00
2022-09-23T18:40:23.504Z,62.60
2022-09-23T18:42:50.862Z,63.00
2022-09-23T18:45:17.933Z,63.40
2022-09-23T18:48:03.728Z,63.70
2022-09-23T18:50:40.219Z,64.20
2022-09-23T18:53:08.176Z,64.40
2022-09-23T18:55:36.070Z,64.90
2022-09-23T18:58:03.405Z,65.00
2022-09-23T19:00:30.620Z,65.30
2022-09-23T19:02:57.762Z,65.70
2022-09-23T19:05:24.849Z,65.70
2022-09-23T19:07:51.877Z,65.70
2022-09-23T19:10:19.345Z,65.70
2022-09-23T19:12:46.667Z,65.80
2022-09-23T19:15:14.210Z,65.80
2022-09-23T19:17:41.343Z,66.30
2022-09-23T19:20:09.269Z,66.70
2022-09-23T19:22:36.438Z,67.00
2022-09-23T19:25:03.751Z,67.30
2022-09-23T19:27:30.911Z,67.20
2022-09-23T19:29:57.982Z,67.50
2022-09-23T19:32:26.709Z,67.20
2022-09-23T19:34:53.782Z,67.30
2022-09-23T19:37:20.931Z,67.00
2022-09-23T19:39:48.207Z,66.70
2022-09-23T19:42:15.377Z,66.70
2022-09-23T19:44:42.525Z,66.70
2022-09-23T19:47:15.396Z,66.80
2022-09-23T19:49:42.849Z,67.50
2022-09-23T19:52:09.883Z,67.90
2022-09-23T19:54:37.673Z,67.60
2022-09-23T19:57:04.886Z,67.60
2022-09-23T19:59:32.071Z,67.70
2022-09-23T20:01:59.354Z,68.00
2022-09-23T20:04:26.540Z,68.10
2022-09-23T20:06:53.623Z,69.30
2022-09-23T20:09:20.831Z,68.40
2022-09-23T20:11:47.954Z,68.30
2022-09-23T20:14:15.175Z,68.40
2022-09-23T20:16:42.319Z,68.40
2022-09-23T20:19:10.097Z,68.60
2022-09-23T20:21:37.200Z,68.80
2022-09-23T20:24:06.404Z,68.90
2022-09-23T20:26:52.254Z,69.20
2022-09-23T20:29:19.392Z,69.20
2022-09-23T20:31:46.729Z,69.40
2022-09-23T20:34:13.826Z,69.60
2022-09-23T20:36:41.767Z,69.80
2022-09-23T20:39:09.710Z,70.40
2022-09-23T20:41:37.703Z,70.60
2022-09-23T20:44:07.392Z,70.30
2022-09-23T20:46:35.074Z,69.10
2022-09-23T20:49:02.521Z,68.90
2022-09-23T20:51:32.999Z,68.50
2022-09-23T20:54:00.631Z,68.70
2022-09-23T20:56:28.591Z,68.50
2022-09-23T20:59:02.243Z,67.90
2022-09-23T21:01:29.299Z,67.80
2022-09-23T21:03:56.489Z,67.80
2022-09-23T21:06:26.720Z,68.40
2022-09-23T21:08:54.923Z,68.30
2022-09-23T21:11:22.454Z,68.40
2022-09-23T21:13:50.710Z,68.50
2022-09-23T21:16:18.837Z,68.70
2022-09-23T21:18:46.785Z,69.10
2022-09-23T21:21:14.210Z,69.60
2022-09-23T21:23:42.408Z,69.40
2022-09-23T21:26:09.488Z,69.60
2022-09-23T21:28:37.833Z,69.70
2022-09-23T21:31:06.556Z,69.70
2022-09-23T21:33:36.326Z,69.70
2022-09-23T21:36:04.176Z,69.30
2022-09-23T21:38:35.498Z,69.20
2022-09-23T21:41:04.501Z,69.50
2022-09-23T21:43:33.537Z,69.40
2022-09-23T21:46:02.204Z,69.20
2022-09-23T21:48:30.289Z,69.10
2022-09-23T21:50:58.533Z,69.10
2022-09-23T21:53:26.085Z,69.30
2022-09-23T21:55:54.065Z,69.40
2022-09-23T21:58:22.502Z,69.20
2022-09-23T22:00:49.685Z,69.40
2022-09-23T22:03:16.902Z,69.70
2022-09-23T22:05:44.079Z,69.30
2022-09-23T22:08:11.214Z,69.20
2022-09-23T22:10:38.360Z,69.10
2022-09-23T22:13:12.586Z,69.00
2022-09-23T22:15:40.061Z,69.20
2022-09-23T22:18:07.947Z,69.10
2022-09-23T22:20:35.037Z,69.00
2022-09-23T22:23:02.077Z,68.80
2022-09-23T22:25:29.118Z,68.70
2022-09-23T22:28:14.546Z,68.80
2022-09-23T22:31:00.146Z,68.90
2022-09-23T22:33:27.298Z,68.90
2022-09-23T22:36:01.468Z,68.90
2022-09-23T22:38:29.659Z,68.80
2022-09-23T22:40:57.436Z,68.30
2022-09-23T22:43:24.614Z,68.30
2022-09-23T22:45:52.082Z,68.40
2022-09-23T22:48:19.878Z,68.50
2022-09-23T22:50:47.738Z,68.80
2022-09-23T22:53:14.748Z,68.90
2022-09-23T22:55:42.680Z,68.70
2022-09-23T22:58:30.830Z,68.40
2022-09-23T23:00:57.191Z,68.80
2022-09-23T23:03:26.758Z,69.20
2022-09-23T23:05:57.539Z,69.30
2022-09-23T23:08:24.690Z,69.10
2022-09-23T23:10:51.724Z,69.20
2022-09-23T23:13:19.201Z,69.20
2022-09-23T23:15:46.279Z,69.30
2022-09-23T23:18:13.635Z,69.30
2022-09-23T23:20:41.102Z,69.10
2022-09-23T23:23:08.140Z,69.20
2022-09-23T23:25:35.214Z,69.30
2022-09-23T23:28:02.445Z,69.20
2022-09-23T23:30:29.551Z,69.70
2022-09-23T23:32:56.692Z,70.00
2022-09-23T23:35:23.773Z,70.40
2022-09-23T23:37:50.913Z,70.20
2022-09-23T23:40:22.556Z,70.90
2022-09-23T23:42:49.716Z,71.10
2022-09-23T23:45:17.371Z,71.30
2022-09-23T23:47:45.321Z,71.50
2022-09-23T23:50:12.454Z,71.50
2022-09-23T23:52:39.546Z,71.60
2022-09-23T23:55:06.735Z,72.10
2022-09-23T23:57:33.767Z,72.00
